CST,Max TemperatureF,Mean TemperatureF,Min TemperatureF,Max Dew PointF,MeanDew PointF,Min DewpointF,Max Humidity, Mean Humidity, Min Humidity, Max Sea Level PressureIn, Mean Sea Level PressureIn, Min Sea Level PressureIn, Max VisibilityMiles, Mean VisibilityMiles, Min VisibilityMiles, Max Wind SpeedMPH, Mean Wind SpeedMPH, Max Gust SpeedMPH,PrecipitationIn, CloudCover, Events, WindDirDegrees
2013-1-1,29,21,13,21,17,5,86,76,61,30.20,30.14,30.07,10,10,9,15,8,18,0.00,5,,308
2013-1-2,24,16,8,11,7,3,80,68,50,30.26,30.21,30.17,10,10,10,14,8,16,0.00,0,,211
2013-1-3,31,23,15,25,18,9,86,75,64,30.28,30.19,30.11,10,9,5,18,11,24,0.00,7,,251
2013-1-4,31,22,13,22,17,9,88,78,66,30.29,30.26,30.20,10,10,8,13,13,16,0.00,0,,233
2013-1-5,34,26,18,32,26,17,96,87,69,30.30,30.15,30.02,10,6,0,18,9,24,T,5,Fog-Snow,208
2013-1-6,35,28,21,31,24,18,89,81,69,30.37,30.11,29.93,10,7,4,25,12,31,0.00,7,,258
2013-1-7,36,26,16,25,20,14,100,81,61,30.40,30.30,30.18,10,7,3,24,10,33,0.00,0,,198
2013-1-8,39,32,25,29,26,22,88,79,67,30.23,30.18,30.10,10,7,4,12,7,,0.00,0,,181
2013-1-9,49,39,28,33,26,17,82,61,33,30.53,30.30,30.08,10,10,8,25,12,35,T,1,,254
2013-1-10,40,31,22,39,30,19,100,83,63,30.54,30.24,29.97,10,7,1,18,9,28,0.03,5,Rain,109
2013-1-11,53,46,39,52,46,39,100,93,82,29.93,29.82,29.72,10,6,1,21,10,29,0.49,6,Rain,169
2013-1-12,57,46,35,48,41,32,93,80,66,29.95,29.89,29.81,10,9,5,18,11,24,0.16,3,Rain,263
2013-1-13,36,32,28,36,26,9,100,90,77,30.27,30.00,29.86,10,6,0,15,8,20,0.04,8,Fog-Rain-Snow,309
2013-1-14,25,19,12,16,12,7,84,77,63,30.49,30.43,30.29,10,10,8,14,3,17,0.00,3,,302
2013-1-15,30,21,12,20,16,10,92,79,61,30.46,30.35,30.14,10,9,7,8,2,10,0.00,0,,110
2013-1-16,36,27,18,27,21,15,89,73,50,30.13,30.01,29.91,10,9,5,26,11,33,0.00,5,,237
2013-1-17,34,26,18,28,19,10,86,67,47,30.43,30.26,30.07,10,10,9,18,8,24,0.00,3,,302
2013-1-18,40,28,16,27,20,11,88,69,53,30.47,30.26,30.01,10,10,10,29,14,37,0.00,1,,207
2013-1-19,49,42,34,35,30,18,79,65,50,30.01,29.89,29.78,10,10,10,37,20,47,0.00,0,,229
2013-1-20,34,25,15,10,5,2,62,53,44,30.30,30.21,29.94,10,10,10,37,12,48,0.00,4,,288
2013-1-21,17,11,4,7,2,-7,85,69,49,30.30,30.17,30.11,10,6,0,23,14,29,T,5,Snow,276
2013-1-22,12,6,0,0,-5,-7,72,61,49,30.42,30.35,30.24,10,10,10,16,10,22,0.00,1,,261
2013-1-23,21,15,9,14,7,-1,81,66,49,30.36,30.23,30.12,10,7,0,22,11,30,T,8,Snow,281
2013-1-24,19,16,13,14,11,6,88,78,65,30.65,30.44,30.24,10,5,0,17,5,23,T,5,Fog-Snow,22
2013-1-25,27,22,17,20,15,9,93,77,55,30.40,30.14,30.01,10,7,1,20,8,25,T,8,Snow,184
2013-1-26,28,23,17,18,15,12,85,75,61,30.44,30.35,30.17,10,8,2,16,6,23,T,6,Snow,303
2013-1-27,35,28,21,34,25,15,96,82,72,30.43,30.21,29.99,10,6,1,21,11,29,0.04,6,Rain,143
2013-1-28,50,43,35,49,43,36,100,98,93,29.98,29.93,29.87,3,1,0,16,9,22,0.14,8,Fog-Rain,180
2013-1-29,59,52,44,57,55,45,100,97,87,29.87,29.63,29.41,10,3,0,25,14,38,1.14,8,Fog-Rain,207
2013-1-30,53,38,23,52,37,19,100,92,78,29.61,29.34,29.20,10,5,1,30,12,38,0.28,8,Rain-Snow,265
2013-1-31,23,15,7,17,9,0,86,72,64,30.16,29.87,29.64,10,6,1,26,19,32,T,8,Snow,271